sensor_id;sensor_type;location;lat;lon;timestamp;temperature;humidity
8988;DHT22;4529;51.360;12.474;2022-12-18T00:02:11;-5.90;99.90
8988;DHT22;4529;51.360;12.474;2022-12-18T00:07:15;-6.00;99.90
8988;DHT22;4529;51.360;12.474;2022-12-18T00:12:18;-6.10;99.90
8988;DHT22;4529;51.360;12.474;2022-12-18T00:17:22;-6.10;99.90
8988;DHT22;4529;51.360;12.474;2022-12-18T00:22:25;-6.20;99.90
8988;DHT22;4529;51.360;12.474;2022-12-18T00:27:29;-6.30;99.90
8988;DHT22;4529;51.360;12.474;2022-12-18T00:32:32;-6.30;99.90
8988;DHT22;4529;51.360;12.474;2022-12-18T00:37:35;-6.30;99.90
8988;DHT22;4529;51.360;12.474;2022-12-18T00:42:39;-6.40;99.90
8988;DHT22;4529;51.360;12.474;2022-12-18T00:47:42;-6.40;99.90
8988;DHT22;4529;51.360;12.474;2022-12-18T00:52:46;-6.30;99.90
8988;DHT22;4529;51.360;12.474;2022-12-18T00:57:51;-6.40;99.90
8988;DHT22;4529;51.360;12.474;2022-12-18T01:02:55;-6.40;99.90
8988;DHT22;4529;51.360;12.474;2022-12-18T01:07:58;-6.40;99.90
8988;DHT22;4529;51.360;12.474;2022-12-18T01:13:02;-6.50;99.90
8988;DHT22;4529;51.360;12.474;2022-12-18T01:18:06;-6.50;99.90
8988;DHT22;4529;51.360;12.474;2022-12-18T01:23:11;-6.50;99.90
8988;DHT22;4529;51.360;12.474;2022-12-18T01:28:12;-6.40;99.90
8988;DHT22;4529;51.360;12.474;2022-12-18T01:33:19;-6.30;99.90
8988;DHT22;4529;51.360;12.474;2022-12-18T01:38:22;-6.20;99.90
8988;DHT22;4529;51.360;12.474;2022-12-18T01:43:56;-6.10;99.90
8988;DHT22;4529;51.360;12.474;2022-12-18T01:48:59;-6.00;99.90
8988;DHT22;4529;51.360;12.474;2022-12-18T01:54:02;-5.90;99.90
8988;DHT22;4529;51.360;12.474;2022-12-18T01:59:05;-5.70;99.90
8988;DHT22;4529;51.360;12.474;2022-12-18T02:04:25;-5.70;99.90
8988;DHT22;4529;51.360;12.474;2022-12-18T02:09:29;-5.60;99.90
8988;DHT22;4529;51.360;12.474;2022-12-18T02:14:46;-5.50;99.90
8988;DHT22;4529;51.360;12.474;2022-12-18T02:19:58;-5.50;99.90
8988;DHT22;4529;51.360;12.474;2022-12-18T02:25:39;-5.50;99.90
8988;DHT22;4529;51.360;12.474;2022-12-18T02:30:38;-5.50;99.90
8988;DHT22;4529;51.360;12.474;2022-12-18T02:35:42;-5.40;99.90
8988;DHT22;4529;51.360;12.474;2022-12-18T02:40:46;-5.40;99.90
8988;DHT22;4529;51.360;12.474;2022-12-18T02:45:58;-5.40;99.90
8988;DHT22;4529;51.360;12.474;2022-12-18T02:51:23;-5.30;99.90
8988;DHT22;4529;51.360;12.474;2022-12-18T02:56:29;-5.40;99.90
8988;DHT22;4529;51.360;12.474;2022-12-18T03:01:39;-5.40;99.90
8988;DHT22;4529;51.360;12.474;2022-12-18T03:06:45;-5.30;99.90
8988;DHT22;4529;51.360;12.474;2022-12-18T03:11:47;-5.30;99.90
8988;DHT22;4529;51.360;12.474;2022-12-18T03:16:49;-5.40;99.90
8988;DHT22;4529;51.360;12.474;2022-12-18T03:21:54;-5.40;99.90
8988;DHT22;4529;51.360;12.474;2022-12-18T03:26:59;-5.50;99.90
8988;DHT22;4529;51.360;12.474;2022-12-18T03:32:16;-5.50;99.90
8988;DHT22;4529;51.360;12.474;2022-12-18T03:37:19;-5.40;99.90
8988;DHT22;4529;51.360;12.474;2022-12-18T03:42:32;-5.40;99.90
8988;DHT22;4529;51.360;12.474;2022-12-18T03:58:04;-5.50;99.90
8988;DHT22;4529;51.360;12.474;2022-12-18T04:03:07;-5.50;99.90
8988;DHT22;4529;51.360;12.474;2022-12-18T04:08:11;-5.50;99.90
8988;DHT22;4529;51.360;12.474;2022-12-18T04:13:21;-5.50;99.90
8988;DHT22;4529;51.360;12.474;2022-12-18T04:18:18;-5.50;99.90
8988;DHT22;4529;51.360;12.474;2022-12-18T04:23:21;-5.50;99.90
8988;DHT22;4529;51.360;12.474;2022-12-18T04:28:25;-5.50;99.90
8988;DHT22;4529;51.360;12.474;2022-12-18T04:33:28;-5.50;99.90
8988;DHT22;4529;51.360;12.474;2022-12-18T04:38:32;-5.60;99.90
8988;DHT22;4529;51.360;12.474;2022-12-18T04:43:35;-5.60;99.90
8988;DHT22;4529;51.360;12.474;2022-12-18T04:48:39;-5.60;99.90
8988;DHT22;4529;51.360;12.474;2022-12-18T04:53:43;-5.50;99.90
8988;DHT22;4529;51.360;12.474;2022-12-18T04:58:47;-5.50;99.90
8988;DHT22;4529;51.360;12.474;2022-12-18T05:03:51;-5.50;99.90
8988;DHT22;4529;51.360;12.474;2022-12-18T05:08:56;-5.50;99.90
8988;DHT22;4529;51.360;12.474;2022-12-18T05:14:00;-5.50;99.90
8988;DHT22;4529;51.360;12.474;2022-12-18T05:19:04;-5.50;99.90
8988;DHT22;4529;51.360;12.474;2022-12-18T05:24:08;-5.60;99.90
8988;DHT22;4529;51.360;12.474;2022-12-18T05:29:12;-5.60;99.90
8988;DHT22;4529;51.360;12.474;2022-12-18T05:34:16;-5.50;99.90
8988;DHT22;4529;51.360;12.474;2022-12-18T05:39:19;-5.60;99.90
8988;DHT22;4529;51.360;12.474;2022-12-18T05:44:23;-5.60;99.90
8988;DHT22;4529;51.360;12.474;2022-12-18T05:49:26;-5.60;99.90
8988;DHT22;4529;51.360;12.474;2022-12-18T05:54:30;-5.50;99.90
8988;DHT22;4529;51.360;12.474;2022-12-18T05:59:33;-5.60;99.90
8988;DHT22;4529;51.360;12.474;2022-12-18T06:04:37;-5.60;99.90
8988;DHT22;4529;51.360;12.474;2022-12-18T06:09:40;-5.60;99.90
8988;DHT22;4529;51.360;12.474;2022-12-18T06:14:44;-5.60;99.90
8988;DHT22;4529;51.360;12.474;2022-12-18T06:19:47;-5.60;99.90
8988;DHT22;4529;51.360;12.474;2022-12-18T06:24:51;-5.60;99.90
8988;DHT22;4529;51.360;12.474;2022-12-18T06:29:54;-5.60;99.90
8988;DHT22;4529;51.360;12.474;2022-12-18T06:34:58;-5.60;99.90
8988;DHT22;4529;51.360;12.474;2022-12-18T06:40:01;-5.60;99.90
8988;DHT22;4529;51.360;12.474;2022-12-18T06:45:05;-5.70;99.90
8988;DHT22;4529;51.360;12.474;2022-12-18T06:50:08;-5.70;99.90
8988;DHT22;4529;51.360;12.474;2022-12-18T06:55:12;-5.70;99.90
8988;DHT22;4529;51.360;12.474;2022-12-18T07:00:16;-5.80;99.90
8988;DHT22;4529;51.360;12.474;2022-12-18T07:05:20;-5.80;99.90
8988;DHT22;4529;51.360;12.474;2022-12-18T07:10:23;-5.80;99.90
8988;DHT22;4529;51.360;12.474;2022-12-18T07:15:27;-5.90;99.90
8988;DHT22;4529;51.360;12.474;2022-12-18T07:20:30;-5.80;99.90
8988;DHT22;4529;51.360;12.474;2022-12-18T07:25:36;-5.90;99.90
8988;DHT22;4529;51.360;12.474;2022-12-18T07:30:40;-5.90;99.90
8988;DHT22;4529;51.360;12.474;2022-12-18T07:35:43;-6.00;99.90
8988;DHT22;4529;51.360;12.474;2022-12-18T07:40:47;-6.00;99.90
8988;DHT22;4529;51.360;12.474;2022-12-18T07:45:50;-6.00;99.90
8988;DHT22;4529;51.360;12.474;2022-12-18T07:51:00;-5.90;99.90
8988;DHT22;4529;51.360;12.474;2022-12-18T07:56:04;-6.00;99.90
8988;DHT22;4529;51.360;12.474;2022-12-18T08:01:07;-5.90;99.90
8988;DHT22;4529;51.360;12.474;2022-12-18T08:06:10;-5.90;99.90
8988;DHT22;4529;51.360;12.474;2022-12-18T08:11:13;-5.90;99.90
8988;DHT22;4529;51.360;12.474;2022-12-18T08:16:17;-5.80;99.90
8988;DHT22;4529;51.360;12.474;2022-12-18T08:21:22;-5.80;99.90
8988;DHT22;4529;51.360;12.474;2022-12-18T08:26:24;-5.70;99.90
8988;DHT22;4529;51.360;12.474;2022-12-18T08:31:28;-5.60;99.90
8988;DHT22;4529;51.360;12.474;2022-12-18T08:36:31;-5.50;99.90
8988;DHT22;4529;51.360;12.474;2022-12-18T08:41:34;-5.50;99.90
8988;DHT22;4529;51.360;12.474;2022-12-18T08:46:38;-5.40;99.90
8988;DHT22;4529;51.360;12.474;2022-12-18T08:51:41;-5.30;99.90
8988;DHT22;4529;51.360;12.474;2022-12-18T08:56:45;-5.20;99.90
8988;DHT22;4529;51.360;12.474;2022-12-18T09:01:48;-5.10;99.90
8988;DHT22;4529;51.360;12.474;2022-12-18T09:06:51;-5.00;99.90
8988;DHT22;4529;51.360;12.474;2022-12-18T09:11:55;-5.00;99.90
8988;DHT22;4529;51.360;12.474;2022-12-18T09:16:58;-4.90;99.90
8988;DHT22;4529;51.360;12.474;2022-12-18T09:22:02;-4.80;99.90
8988;DHT22;4529;51.360;12.474;2022-12-18T09:27:05;-4.70;99.90
8988;DHT22;4529;51.360;12.474;2022-12-18T09:32:09;-4.60;99.90
8988;DHT22;4529;51.360;12.474;2022-12-18T09:37:12;-4.60;99.90
8988;DHT22;4529;51.360;12.474;2022-12-18T09:42:22;-4.50;99.90
8988;DHT22;4529;51.360;12.474;2022-12-18T09:47:33;-4.40;99.90
8988;DHT22;4529;51.360;12.474;2022-12-18T09:52:41;-4.30;99.90
8988;DHT22;4529;51.360;12.474;2022-12-18T09:57:51;-4.30;99.90
8988;DHT22;4529;51.360;12.474;2022-12-18T10:02:58;-4.70;99.90
8988;DHT22;4529;51.360;12.474;2022-12-18T10:08:05;-5.00;99.90
8988;DHT22;4529;51.360;12.474;2022-12-18T10:13:21;-5.00;99.90
8988;DHT22;4529;51.360;12.474;2022-12-18T10:24:31;-5.10;99.90
8988;DHT22;4529;51.360;12.474;2022-12-18T10:29:35;-5.00;99.90
8988;DHT22;4529;51.360;12.474;2022-12-18T10:34:39;-5.00;99.90
8988;DHT22;4529;51.360;12.474;2022-12-18T10:39:42;-4.90;99.90
8988;DHT22;4529;51.360;12.474;2022-12-18T10:44:46;-4.70;99.90
8988;DHT22;4529;51.360;12.474;2022-12-18T10:49:50;-4.60;99.90
8988;DHT22;4529;51.360;12.474;2022-12-18T10:54:59;-4.50;99.90
8988;DHT22;4529;51.360;12.474;2022-12-18T11:00:00;-4.40;99.90
8988;DHT22;4529;51.360;12.474;2022-12-18T11:05:03;-4.10;99.90
8988;DHT22;4529;51.360;12.474;2022-12-18T11:10:15;-3.90;99.90
8988;DHT22;4529;51.360;12.474;2022-12-18T11:15:27;-3.70;99.90
8988;DHT22;4529;51.360;12.474;2022-12-18T11:20:36;-3.60;99.90
8988;DHT22;4529;51.360;12.474;2022-12-18T11:25:39;-3.60;99.90
8988;DHT22;4529;51.360;12.474;2022-12-18T11:31:26;-3.50;99.90
8988;DHT22;4529;51.360;12.474;2022-12-18T11:36:31;-3.40;99.90
8988;DHT22;4529;51.360;12.474;2022-12-18T11:41:50;-3.30;99.90
8988;DHT22;4529;51.360;12.474;2022-12-18T11:46:55;-3.30;99.90
8988;DHT22;4529;51.360;12.474;2022-12-18T11:52:21;-3.20;99.90
8988;DHT22;4529;51.360;12.474;2022-12-18T11:57:53;-3.10;99.90
8988;DHT22;4529;51.360;12.474;2022-12-18T12:08:35;-3.00;99.90
8988;DHT22;4529;51.360;12.474;2022-12-18T12:19:36;-2.80;99.90
8988;DHT22;4529;51.360;12.474;2022-12-18T12:24:49;-2.60;99.90
8988;DHT22;4529;51.360;12.474;2022-12-18T12:30:05;-2.60;99.90
8988;DHT22;4529;51.360;12.474;2022-12-18T12:40:18;-2.50;99.90
8988;DHT22;4529;51.360;12.474;2022-12-18T12:45:24;-2.50;99.90
8988;DHT22;4529;51.360;12.474;2022-12-18T12:50:26;-2.40;99.90
8988;DHT22;4529;51.360;12.474;2022-12-18T12:55:30;-2.40;99.90
8988;DHT22;4529;51.360;12.474;2022-12-18T13:00:44;-2.40;99.90
8988;DHT22;4529;51.360;12.474;2022-12-18T13:05:46;-2.40;99.90
8988;DHT22;4529;51.360;12.474;2022-12-18T13:10:48;-2.30;99.90
8988;DHT22;4529;51.360;12.474;2022-12-18T13:16:05;-2.30;99.90
8988;DHT22;4529;51.360;12.474;2022-12-18T13:36:45;-2.20;99.90
8988;DHT22;4529;51.360;12.474;2022-12-18T13:41:50;-2.20;99.90
8988;DHT22;4529;51.360;12.474;2022-12-18T13:46:52;-2.20;99.90
8988;DHT22;4529;51.360;12.474;2022-12-18T13:51:55;-2.30;99.90
8988;DHT22;4529;51.360;12.474;2022-12-18T13:56:59;-2.40;99.90
8988;DHT22;4529;51.360;12.474;2022-12-18T14:02:15;-2.50;99.90
8988;DHT22;4529;51.360;12.474;2022-12-18T14:07:18;-2.60;99.90
8988;DHT22;4529;51.360;12.474;2022-12-18T14:12:22;-2.70;99.90
8988;DHT22;4529;51.360;12.474;2022-12-18T14:17:24;-2.70;99.90
8988;DHT22;4529;51.360;12.474;2022-12-18T14:22:28;-2.70;99.90
8988;DHT22;4529;51.360;12.474;2022-12-18T14:27:36;-2.70;99.90
8988;DHT22;4529;51.360;12.474;2022-12-18T14:32:35;-2.80;99.90
8988;DHT22;4529;51.360;12.474;2022-12-18T14:37:38;-2.80;99.90
8988;DHT22;4529;51.360;12.474;2022-12-18T14:42:42;-2.90;99.90
8988;DHT22;4529;51.360;12.474;2022-12-18T14:47:47;-3.10;99.90
8988;DHT22;4529;51.360;12.474;2022-12-18T14:52:50;-3.10;99.90
8988;DHT22;4529;51.360;12.474;2022-12-18T14:57:54;-3.20;99.90
8988;DHT22;4529;51.360;12.474;2022-12-18T15:02:57;-3.30;99.90
8988;DHT22;4529;51.360;12.474;2022-12-18T15:08:01;-3.40;99.90
8988;DHT22;4529;51.360;12.474;2022-12-18T15:28:26;-3.70;99.90
8988;DHT22;4529;51.360;12.474;2022-12-18T15:33:34;-3.70;99.90
8988;DHT22;4529;51.360;12.474;2022-12-18T15:38:37;-3.80;99.90
8988;DHT22;4529;51.360;12.474;2022-12-18T15:43:41;-3.80;99.90
8988;DHT22;4529;51.360;12.474;2022-12-18T15:48:49;-3.80;99.90
8988;DHT22;4529;51.360;12.474;2022-12-18T15:53:53;-3.80;99.90
8988;DHT22;4529;51.360;12.474;2022-12-18T15:58:57;-3.80;99.90
8988;DHT22;4529;51.360;12.474;2022-12-18T16:04:01;-3.80;99.90
8988;DHT22;4529;51.360;12.474;2022-12-18T16:09:05;-3.80;99.90
8988;DHT22;4529;51.360;12.474;2022-12-18T16:14:26;-3.80;99.90
8988;DHT22;4529;51.360;12.474;2022-12-18T16:19:29;-3.80;99.90
8988;DHT22;4529;51.360;12.474;2022-12-18T16:24:33;-3.80;99.90
8988;DHT22;4529;51.360;12.474;2022-12-18T16:29:36;-3.90;99.90
8988;DHT22;4529;51.360;12.474;2022-12-18T16:34:40;-3.80;99.90
8988;DHT22;4529;51.360;12.474;2022-12-18T16:39:43;-3.90;99.90
8988;DHT22;4529;51.360;12.474;2022-12-18T16:44:47;-3.90;99.90
8988;DHT22;4529;51.360;12.474;2022-12-18T16:49:50;-4.00;99.90
8988;DHT22;4529;51.360;12.474;2022-12-18T16:54:53;-4.00;99.90
8988;DHT22;4529;51.360;12.474;2022-12-18T16:59:57;-4.00;99.90
8988;DHT22;4529;51.360;12.474;2022-12-18T17:05:00;-4.00;99.90
8988;DHT22;4529;51.360;12.474;2022-12-18T17:10:06;-4.00;99.90
8988;DHT22;4529;51.360;12.474;2022-12-18T17:15:09;-4.00;99.90
8988;DHT22;4529;51.360;12.474;2022-12-18T17:20:13;-4.00;99.90
8988;DHT22;4529;51.360;12.474;2022-12-18T17:25:17;-3.90;99.90
8988;DHT22;4529;51.360;12.474;2022-12-18T17:30:21;-3.90;99.90
8988;DHT22;4529;51.360;12.474;2022-12-18T17:35:25;-3.90;99.90
8988;DHT22;4529;51.360;12.474;2022-12-18T17:40:31;-3.80;99.90
8988;DHT22;4529;51.360;12.474;2022-12-18T17:45:38;-3.80;99.90
8988;DHT22;4529;51.360;12.474;2022-12-18T17:50:39;-3.80;99.90
8988;DHT22;4529;51.360;12.474;2022-12-18T17:55:42;-3.70;99.90
8988;DHT22;4529;51.360;12.474;2022-12-18T18:00:46;-3.70;99.90
8988;DHT22;4529;51.360;12.474;2022-12-18T18:05:55;-3.60;99.90
8988;DHT22;4529;51.360;12.474;2022-12-18T18:11:01;-3.60;99.90
8988;DHT22;4529;51.360;12.474;2022-12-18T18:16:02;-3.50;99.90
8988;DHT22;4529;51.360;12.474;2022-12-18T18:21:06;-3.50;99.90
8988;DHT22;4529;51.360;12.474;2022-12-18T18:26:09;-3.40;99.90
8988;DHT22;4529;51.360;12.474;2022-12-18T18:36:08;-3.30;99.90
8988;DHT22;4529;51.360;12.474;2022-12-18T18:41:09;-3.10;99.90
8988;DHT22;4529;51.360;12.474;2022-12-18T18:46:13;-3.00;99.90
8988;DHT22;4529;51.360;12.474;2022-12-18T18:51:17;-2.90;99.90
8988;DHT22;4529;51.360;12.474;2022-12-18T18:56:20;-2.90;99.90
8988;DHT22;4529;51.360;12.474;2022-12-18T19:01:23;-2.80;99.90
8988;DHT22;4529;51.360;12.474;2022-12-18T19:06:27;-2.70;99.90
8988;DHT22;4529;51.360;12.474;2022-12-18T19:11:30;-2.70;99.90
8988;DHT22;4529;51.360;12.474;2022-12-18T19:16:34;-2.60;99.90
8988;DHT22;4529;51.360;12.474;2022-12-18T19:21:37;-2.60;99.90
8988;DHT22;4529;51.360;12.474;2022-12-18T19:26:41;-2.50;99.90
8988;DHT22;4529;51.360;12.474;2022-12-18T19:31:44;-2.50;99.90
8988;DHT22;4529;51.360;12.474;2022-12-18T19:36:49;-2.40;99.90
8988;DHT22;4529;51.360;12.474;2022-12-18T19:41:52;-2.40;99.90
8988;DHT22;4529;51.360;12.474;2022-12-18T19:46:56;-2.40;99.90
8988;DHT22;4529;51.360;12.474;2022-12-18T19:51:59;-2.30;99.90
8988;DHT22;4529;51.360;12.474;2022-12-18T19:57:03;-2.30;99.90
8988;DHT22;4529;51.360;12.474;2022-12-18T20:02:12;-2.30;99.90
8988;DHT22;4529;51.360;12.474;2022-12-18T20:07:15;-2.30;99.90
8988;DHT22;4529;51.360;12.474;2022-12-18T20:12:18;-2.30;99.90
8988;DHT22;4529;51.360;12.474;2022-12-18T20:17:22;-2.20;99.90
8988;DHT22;4529;51.360;12.474;2022-12-18T20:22:25;-2.20;99.90
8988;DHT22;4529;51.360;12.474;2022-12-18T20:27:29;-2.20;99.90
8988;DHT22;4529;51.360;12.474;2022-12-18T20:32:32;-2.20;99.90
8988;DHT22;4529;51.360;12.474;2022-12-18T20:37:36;-2.20;99.90
8988;DHT22;4529;51.360;12.474;2022-12-18T20:42:39;-2.20;99.90
8988;DHT22;4529;51.360;12.474;2022-12-18T20:47:43;-2.20;99.90
8988;DHT22;4529;51.360;12.474;2022-12-18T20:52:47;-2.30;99.90
8988;DHT22;4529;51.360;12.474;2022-12-18T20:57:50;-2.20;99.90
8988;DHT22;4529;51.360;12.474;2022-12-18T21:02:54;-2.10;99.90
8988;DHT22;4529;51.360;12.474;2022-12-18T21:07:58;-2.10;99.90
8988;DHT22;4529;51.360;12.474;2022-12-18T21:13:02;-2.10;99.90
8988;DHT22;4529;51.360;12.474;2022-12-18T21:18:06;-2.10;99.90
8988;DHT22;4529;51.360;12.474;2022-12-18T21:23:09;-2.10;99.90
8988;DHT22;4529;51.360;12.474;2022-12-18T21:28:13;-2.10;99.90
8988;DHT22;4529;51.360;12.474;2022-12-18T21:33:16;-2.00;99.90
8988;DHT22;4529;51.360;12.474;2022-12-18T21:38:20;-1.90;99.90
8988;DHT22;4529;51.360;12.474;2022-12-18T21:43:23;-1.90;99.90
8988;DHT22;4529;51.360;12.474;2022-12-18T21:48:27;-1.90;99.90
8988;DHT22;4529;51.360;12.474;2022-12-18T21:53:30;-1.80;99.90
8988;DHT22;4529;51.360;12.474;2022-12-18T21:58:34;-1.80;99.90
8988;DHT22;4529;51.360;12.474;2022-12-18T22:03:37;-1.80;99.90
8988;DHT22;4529;51.360;12.474;2022-12-18T22:08:41;-1.70;99.90
8988;DHT22;4529;51.360;12.474;2022-12-18T22:13:44;-1.60;99.90
8988;DHT22;4529;51.360;12.474;2022-12-18T22:18:48;-1.60;99.90
8988;DHT22;4529;51.360;12.474;2022-12-18T22:23:54;-1.50;99.90
8988;DHT22;4529;51.360;12.474;2022-12-18T22:28:54;-1.50;99.90
8988;DHT22;4529;51.360;12.474;2022-12-18T22:34:04;-1.40;99.90
8988;DHT22;4529;51.360;12.474;2022-12-18T22:39:11;-1.30;99.90
8988;DHT22;4529;51.360;12.474;2022-12-18T22:44:13;-1.30;99.90
8988;DHT22;4529;51.360;12.474;2022-12-18T22:49:18;-1.30;99.90
8988;DHT22;4529;51.360;12.474;2022-12-18T22:54:20;-1.30;99.90
8988;DHT22;4529;51.360;12.474;2022-12-18T22:59:24;-1.30;99.90
8988;DHT22;4529;51.360;12.474;2022-12-18T23:04:27;-1.30;99.90
8988;DHT22;4529;51.360;12.474;2022-12-18T23:09:31;-1.30;99.90
8988;DHT22;4529;51.360;12.474;2022-12-18T23:14:35;-1.30;99.90
8988;DHT22;4529;51.360;12.474;2022-12-18T23:19:39;-1.20;99.90
8988;DHT22;4529;51.360;12.474;2022-12-18T23:24:43;-1.20;99.90
8988;DHT22;4529;51.360;12.474;2022-12-18T23:29:50;-1.30;99.90
8988;DHT22;4529;51.360;12.474;2022-12-18T23:34:54;-1.30;99.90
8988;DHT22;4529;51.360;12.474;2022-12-18T23:39:57;-1.20;99.90
8988;DHT22;4529;51.360;12.474;2022-12-18T23:45:01;-1.20;99.90
8988;DHT22;4529;51.360;12.474;2022-12-18T23:50:04;-1.20;99.90
8988;DHT22;4529;51.360;12.474;2022-12-18T23:55:08;-1.20;99.90
